Time;durP1;ratioP1;P1;durP2;ratioP2;P2;SDS_P1;SDS_P2;PMS_P1;PMS_P2;Temp;Humidity;BMP_temperature;BMP_pressure;BME280_temperature;BME280_humidity;BME280_pressure;Samples;Min_cycle;Max_cycle;Signal;HPM_P1;HPM_P2
2020/12/09 00:00:29;;;;;;;29.80;21.57;;;5.70;99.90;;;;;;5031861;28;20472;-67
2020/12/09 00:02:56;;;;;;;25.23;20.77;;;5.70;99.90;;;;;;5032293;28;20483;-67
2020/12/09 00:05:23;;;;;;;26.67;21.50;;;5.70;99.90;;;;;;5032231;28;20463;-68
2020/12/09 00:07:49;;;;;;;26.33;21.70;;;5.70;99.90;;;;;;5032193;28;20440;-68
2020/12/09 00:10:16;;;;;;;26.43;22.27;;;5.70;99.90;;;;;;5031687;28;20481;-67
2020/12/09 00:12:42;;;;;;;26.10;21.93;;;5.60;99.90;;;;;;5032094;28;20445;-67
2020/12/09 00:15:10;;;;;;;29.00;23.73;;;5.50;99.90;;;;;;5032068;28;20452;-67
2020/12/09 00:17:37;;;;;;;28.60;25.63;;;5.50;99.90;;;;;;5031984;28;20942;-67
2020/12/09 00:20:05;;;;;;;24.97;21.97;;;5.60;99.90;;;;;;5031747;28;20459;-68
2020/12/09 00:22:32;;;;;;;27.13;22.10;;;5.60;99.90;;;;;;5031873;28;20498;-67
2020/12/09 00:24:59;;;;;;;28.50;22.63;;;5.50;99.90;;;;;;5031976;28;20444;-68
2020/12/09 00:27:25;;;;;;;25.57;21.30;;;5.60;99.90;;;;;;5032014;28;20437;-67
2020/12/09 00:29:51;;;;;;;26.07;22.03;;;5.60;99.90;;;;;;5031518;28;20488;-67
2020/12/09 00:32:17;;;;;;;28.20;20.60;;;5.60;99.90;;;;;;5031696;28;20452;-68
2020/12/09 00:34:44;;;;;;;28.20;23.70;;;5.60;99.90;;;;;;5031903;28;20437;-67
2020/12/09 00:37:11;;;;;;;28.80;22.40;;;5.50;99.90;;;;;;5031687;28;20445;-67
2020/12/09 00:39:37;;;;;;;29.20;23.40;;;5.50;99.90;;;;;;5031691;28;20969;-67
2020/12/09 00:42:03;;;;;;;34.37;25.70;;;5.50;99.90;;;;;;5031503;28;20928;-67
2020/12/09 00:44:29;;;;;;;31.90;21.77;;;5.50;99.90;;;;;;5031711;28;20806;-67
2020/12/09 00:46:56;;;;;;;28.20;23.60;;;5.50;99.90;;;;;;5031577;28;20447;-67
2020/12/09 00:49:22;;;;;;;30.10;24.60;;;5.50;99.90;;;;;;5031495;28;20440;-67
2020/12/09 00:51:49;;;;;;;31.77;24.20;;;5.40;99.90;;;;;;5031346;28;20487;-67
2020/12/09 00:54:15;;;;;;;31.73;25.73;;;5.40;99.90;;;;;;5031552;28;20923;-67
2020/12/09 00:56:43;;;;;;;34.37;23.97;;;5.40;99.90;;;;;;5031589;28;20440;-67
2020/12/09 00:59:10;;;;;;;35.23;27.77;;;5.50;99.90;;;;;;5031362;28;20445;-68
2020/12/09 01:01:36;;;;;;;31.87;26.03;;;5.50;99.90;;;;;;5031294;28;20457;-68
2020/12/09 01:04:03;;;;;;;31.07;25.43;;;5.50;99.90;;;;;;5031358;28;20436;-67
2020/12/09 01:06:33;;;;;;;31.23;25.53;;;5.50;99.90;;;;;;5031555;28;20437;-67
2020/12/09 01:09:02;;;;;;;29.93;23.87;;;5.40;99.90;;;;;;5031289;28;20934;-67
2020/12/09 01:11:28;;;;;;;33.73;25.30;;;5.40;99.90;;;;;;5031983;28;20480;-67
2020/12/09 01:13:54;;;;;;;31.10;23.43;;;5.40;99.90;;;;;;5035454;28;20499;-68
2020/12/09 01:16:20;;;;;;;33.20;25.73;;;5.40;99.90;;;;;;5035300;28;20444;-68
2020/12/09 01:18:48;;;;;;;33.33;23.43;;;5.40;99.90;;;;;;5035266;28;20447;-67
2020/12/09 01:21:15;;;;;;;28.53;23.33;;;5.40;99.90;;;;;;5034929;28;20879;-67
2020/12/09 01:23:41;;;;;;;32.00;25.47;;;5.30;99.90;;;;;;5035138;28;20437;-67
2020/12/09 01:26:11;;;;;;;33.83;23.77;;;5.30;99.90;;;;;;5035172;28;20931;-67
2020/12/09 01:28:38;;;;;;;34.43;25.30;;;5.30;99.90;;;;;;5035186;28;20433;-68
2020/12/09 01:31:04;;;;;;;33.53;25.33;;;5.30;99.90;;;;;;5034658;28;20487;-69
2020/12/09 01:33:30;;;;;;;30.10;24.70;;;5.30;99.90;;;;;;5035122;28;20445;-67
2020/12/09 01:35:56;;;;;;;36.53;27.97;;;5.30;99.90;;;;;;5034913;28;20441;-68
2020/12/09 01:38:23;;;;;;;38.33;29.07;;;5.20;99.90;;;;;;5035090;28;20436;-69
2020/12/09 01:40:49;;;;;;;33.83;26.40;;;5.20;99.90;;;;;;5034717;28;20456;-69
2020/12/09 01:43:16;;;;;;;37.37;27.33;;;5.10;99.90;;;;;;5034894;28;20441;-68
2020/12/09 01:45:42;;;;;;;38.73;28.30;;;5.10;99.90;;;;;;5034699;28;20443;-66
2020/12/09 01:48:10;;;;;;;32.97;26.93;;;5.10;99.90;;;;;;5035042;28;20445;-67
2020/12/09 01:50:36;;;;;;;36.10;29.27;;;5.10;99.90;;;;;;5034565;28;20534;-67
2020/12/09 01:53:03;;;;;;;36.27;27.40;;;5.00;99.90;;;;;;5034689;28;20441;-67
2020/12/09 01:55:29;;;;;;;37.77;28.17;;;5.00;99.90;;;;;;5034747;28;20445;-67
2020/12/09 01:57:56;;;;;;;33.50;27.40;;;5.00;99.90;;;;;;5034678;28;20818;-68
2020/12/09 02:00:23;;;;;;;41.43;30.17;;;4.90;99.90;;;;;;5034459;28;20469;-68
2020/12/09 02:02:50;;;;;;;35.70;27.20;;;4.90;99.90;;;;;;5034577;28;20467;-67
2020/12/09 02:05:16;;;;;;;37.57;29.93;;;4.90;99.90;;;;;;5034295;28;20468;-68
2020/12/09 02:07:42;;;;;;;35.30;26.60;;;4.90;99.90;;;;;;5034493;28;20441;-67
2020/12/09 02:10:09;;;;;;;36.53;26.30;;;4.90;99.90;;;;;;5034039;28;20492;-67
2020/12/09 02:12:39;;;;;;;34.50;27.17;;;5.00;99.90;;;;;;5034315;28;20441;-67
2020/12/09 02:15:06;;;;;;;36.60;27.33;;;4.90;99.90;;;;;;5034284;28;20437;-67
2020/12/09 02:17:33;;;;;;;39.77;26.33;;;4.90;99.90;;;;;;5034233;28;20503;-67
2020/12/09 02:19:59;;;;;;;35.00;28.17;;;4.90;99.90;;;;;;5033940;28;20460;-67
2020/12/09 02:22:26;;;;;;;35.97;27.43;;;4.90;99.90;;;;;;5033522;28;20437;-67
2020/12/09 02:24:53;;;;;;;33.57;26.87;;;4.90;99.90;;;;;;5033586;28;20437;-67
2020/12/09 02:27:19;;;;;;;37.60;29.97;;;4.90;99.90;;;;;;5033943;28;20441;-68
2020/12/09 02:29:45;;;;;;;40.00;28.77;;;4.90;99.90;;;;;;5033839;28;20461;-67
2020/12/09 02:32:11;;;;;;;34.30;28.30;;;4.90;99.90;;;;;;5033835;28;20437;-67
2020/12/09 02:34:39;;;;;;;36.10;29.40;;;4.80;99.90;;;;;;5033950;28;21122;-67
2020/12/09 02:37:05;;;;;;;40.67;32.07;;;4.80;99.90;;;;;;5033895;28;20441;-67
2020/12/09 02:39:34;;;;;;;42.67;32.40;;;4.80;99.90;;;;;;5033714;28;20448;-68
2020/12/09 02:42:00;;;;;;;35.70;29.03;;;4.80;99.90;;;;;;5033730;28;20448;-67
2020/12/09 02:44:27;;;;;;;41.07;31.20;;;4.80;99.90;;;;;;5033749;28;20957;-68
2020/12/09 02:46:53;;;;;;;38.93;30.87;;;4.70;99.90;;;;;;5033656;28;20436;-67
2020/12/09 02:49:20;;;;;;;42.83;32.17;;;4.70;99.90;;;;;;5033432;28;20445;-67
2020/12/09 02:51:46;;;;;;;39.13;31.03;;;4.70;99.90;;;;;;5033235;28;20842;-68
2020/12/09 02:54:12;;;;;;;46.50;34.67;;;4.70;99.90;;;;;;5033569;28;20953;-68
2020/12/09 02:56:39;;;;;;;44.03;34.90;;;4.70;99.90;;;;;;5033679;28;21109;-67
2020/12/09 02:59:05;;;;;;;41.80;33.73;;;4.70;99.90;;;;;;5033167;28;20437;-67
2020/12/09 03:01:35;;;;;;;41.13;31.83;;;4.60;99.90;;;;;;5033162;28;20453;-67
2020/12/09 03:04:02;;;;;;;43.33;34.57;;;4.60;99.90;;;;;;5033507;28;20441;-67
2020/12/09 03:06:28;;;;;;;47.17;35.67;;;4.60;99.90;;;;;;5033205;28;20455;-67
2020/12/09 03:08:54;;;;;;;43.47;31.90;;;4.60;99.90;;;;;;5033329;28;20449;-67
2020/12/09 03:11:21;;;;;;;47.70;35.80;;;4.60;99.90;;;;;;5032722;28;20547;-67
2020/12/09 03:13:48;;;;;;;43.97;36.13;;;4.60;99.90;;;;;;5033055;28;20448;-67
2020/12/09 03:16:14;;;;;;;42.60;34.40;;;4.70;99.90;;;;;;5033286;28;20444;-67
2020/12/09 03:18:40;;;;;;;45.10;35.50;;;4.70;99.90;;;;;;5033158;28;20437;-68
2020/12/09 03:21:07;;;;;;;45.97;34.60;;;4.60;99.90;;;;;;5032664;28;20462;-67
2020/12/09 03:23:34;;;;;;;42.30;33.63;;;4.60;99.90;;;;;;5033090;28;20810;-68
2020/12/09 03:26:00;;;;;;;45.80;35.90;;;4.60;99.90;;;;;;5032917;28;20444;-68
2020/12/09 03:28:27;;;;;;;38.37;32.67;;;4.60;99.90;;;;;;5032729;28;20449;-67
2020/12/09 03:30:54;;;;;;;41.43;33.13;;;4.60;99.90;;;;;;5032513;28;20485;-67
2020/12/09 03:33:20;;;;;;;38.57;32.10;;;4.60;99.90;;;;;;5032733;28;20938;-67
2020/12/09 03:35:47;;;;;;;48.60;35.83;;;4.60;99.90;;;;;;5032462;28;20437;-68
2020/12/09 03:38:13;;;;;;;39.87;31.57;;;4.60;99.90;;;;;;5032781;28;20492;-67
2020/12/09 03:40:39;;;;;;;41.00;33.83;;;4.60;99.90;;;;;;5032329;28;20457;-67
2020/12/09 03:43:05;;;;;;;41.80;32.00;;;4.70;99.90;;;;;;5032804;28;20437;-68
2020/12/09 03:45:32;;;;;;;37.87;30.53;;;4.70;99.90;;;;;;5032534;28;20456;-67
2020/12/09 03:47:59;;;;;;;37.03;29.90;;;4.60;99.90;;;;;;5032446;28;20437;-67
2020/12/09 03:50:25;;;;;;;43.13;32.43;;;4.60;99.90;;;;;;5032092;28;20488;-68
2020/12/09 03:52:51;;;;;;;38.80;31.70;;;4.60;99.90;;;;;;5032366;28;20445;-67
2020/12/09 03:55:17;;;;;;;38.87;30.33;;;4.60;99.90;;;;;;5032317;28;20437;-67
2020/12/09 03:57:44;;;;;;;44.37;32.20;;;4.50;99.90;;;;;;5032397;28;20445;-67
2020/12/09 04:00:10;;;;;;;40.73;31.97;;;4.50;99.90;;;;;;5031863;28;20473;-67
2020/12/09 04:02:36;;;;;;;41.00;32.20;;;4.50;99.90;;;;;;5032344;28;20437;-68
2020/12/09 04:05:04;;;;;;;40.10;32.23;;;4.50;99.90;;;;;;5032259;28;20528;-67
2020/12/09 04:07:30;;;;;;;39.57;32.70;;;4.40;99.90;;;;;;5031996;28;20445;-67
2020/12/09 04:09:56;;;;;;;37.37;30.80;;;4.40;99.90;;;;;;5031901;28;20466;-67
2020/12/09 04:12:23;;;;;;;42.57;32.30;;;4.40;99.90;;;;;;5032032;28;20532;-67
2020/12/09 04:14:50;;;;;;;39.87;31.47;;;4.40;99.90;;;;;;5032119;28;20444;-67
2020/12/09 04:17:16;;;;;;;42.03;32.60;;;4.50;99.90;;;;;;5032139;28;20676;-68
2020/12/09 04:19:43;;;;;;;43.67;32.87;;;4.40;99.90;;;;;;5031810;28;20461;-67
2020/12/09 04:22:10;;;;;;;40.07;32.33;;;4.40;99.90;;;;;;5031905;28;20433;-67
2020/12/09 04:24:36;;;;;;;48.03;33.43;;;4.40;99.90;;;;;;5032116;28;20935;-68
2020/12/09 04:27:02;;;;;;;43.03;34.13;;;4.30;99.90;;;;;;5031810;28;20927;-67
2020/12/09 04:29:28;;;;;;;41.97;32.00;;;4.30;99.90;;;;;;5031754;28;20781;-67
2020/12/09 04:31:55;;;;;;;47.10;35.00;;;4.30;99.90;;;;;;5031646;28;20480;-67
2020/12/09 04:34:21;;;;;;;43.83;35.77;;;4.20;99.90;;;;;;5031793;28;20437;-67
2020/12/09 04:36:49;;;;;;;43.17;35.40;;;4.20;99.90;;;;;;5031920;28;20452;-67
2020/12/09 04:39:16;;;;;;;49.23;36.57;;;4.10;99.90;;;;;;5031524;28;20441;-67
2020/12/09 04:41:43;;;;;;;51.20;37.07;;;4.10;99.90;;;;;;5031363;28;20443;-66
2020/12/09 04:44:09;;;;;;;45.47;35.40;;;4.10;99.90;;;;;;5031755;28;20448;-67
2020/12/09 04:46:41;;;;;;;45.60;35.83;;;4.00;99.90;;;;;;5030862;28;20447;-67
2020/12/09 04:49:16;;;;;;;46.37;36.50;;;4.10;99.90;;;;;;5031598;28;20453;-67
2020/12/09 04:52:05;;;;;;;47.40;37.50;;;4.00;99.90;;;;;;5031491;28;20480;-69
2020/12/09 04:54:38;;;;;;;53.87;42.17;;;4.00;99.90;;;;;;5031479;28;20444;-69
2020/12/09 04:57:10;;;;;;;50.23;36.80;;;4.00;99.90;;;;;;5031605;28;20806;-67
2020/12/09 04:59:40;;;;;;;48.60;37.63;;;3.90;99.90;;;;;;5031129;28;20469;-68
2020/12/09 05:02:07;;;;;;;57.67;39.80;;;3.90;99.90;;;;;;5031446;28;20546;-67
2020/12/09 05:04:36;;;;;;;63.70;41.67;;;3.80;99.90;;;;;;5031563;28;20438;-69
2020/12/09 05:07:06;;;;;;;55.43;41.37;;;3.80;99.90;;;;;;5031392;28;20437;-66
2020/12/09 05:09:42;;;;;;;55.17;41.43;;;3.80;99.90;;;;;;5031227;28;20498;-68
2020/12/09 05:12:11;;;;;;;55.87;42.23;;;3.80;99.90;;;;;;5031464;28;20476;-69
2020/12/09 05:14:42;;;;;;;61.57;44.73;;;3.70;99.90;;;;;;5031152;28;20452;-67
2020/12/09 05:17:14;;;;;;;63.23;43.37;;;3.70;99.90;;;;;;5031316;28;20445;-69
2020/12/09 05:19:41;;;;;;;57.43;44.10;;;3.60;99.90;;;;;;5031097;28;20978;-70
2020/12/09 05:22:14;;;;;;;52.17;41.33;;;3.70;99.90;;;;;;5030985;28;20441;-68
2020/12/09 05:24:42;;;;;;;61.13;41.43;;;3.60;99.90;;;;;;5031214;28;20437;-68
2020/12/09 05:27:08;;;;;;;56.00;43.27;;;3.50;99.90;;;;;;5031279;28;20437;-70
2020/12/09 05:29:43;;;;;;;62.90;41.47;;;3.60;99.90;;;;;;5031061;28;20453;-70
2020/12/09 05:32:09;;;;;;;58.90;41.33;;;3.50;99.90;;;;;;5031169;28;20491;-69
2020/12/09 05:34:35;;;;;;;70.47;45.50;;;3.50;99.90;;;;;;5031238;28;20433;-70
2020/12/09 05:37:03;;;;;;;59.27;41.30;;;3.50;99.90;;;;;;5031058;28;20935;-68
2020/12/09 05:39:30;;;;;;;74.50;48.37;;;3.50;99.90;;;;;;5031048;28;20438;-69
2020/12/09 05:41:58;;;;;;;65.20;43.60;;;3.50;99.90;;;;;;5030880;28;20441;-69
2020/12/09 05:44:26;;;;;;;60.07;42.10;;;3.40;99.90;;;;;;5031028;28;20441;-67
2020/12/09 05:47:01;;;;;;;66.30;42.50;;;3.30;99.90;;;;;;5031183;28;20998;-70
2020/12/09 05:49:30;;;;;;;61.40;44.70;;;3.20;99.90;;;;;;5030880;28;20922;-68
2020/12/09 05:52:04;;;;;;;57.93;39.80;;;3.20;99.90;;;;;;5030769;28;20486;-69
2020/12/09 05:54:30;;;;;;;60.07;41.50;;;3.20;99.90;;;;;;5031085;28;20810;-66
2020/12/09 05:56:58;;;;;;;51.63;39.10;;;3.20;99.90;;;;;;5031138;28;20444;-67
2020/12/09 05:59:38;;;;;;;57.43;40.50;;;3.10;99.90;;;;;;5034432;28;20455;-68
2020/12/09 06:02:07;;;;;;;53.23;37.57;;;3.10;99.90;;;;;;5034470;28;20448;-67
2020/12/09 06:04:50;;;;;;;50.17;38.83;;;3.10;99.90;;;;;;5034379;28;20441;-68
2020/12/09 06:07:17;;;;;;;58.30;38.17;;;3.10;99.90;;;;;;5034191;28;20441;-67
2020/12/09 06:10:06;;;;;;;54.23;39.53;;;3.10;99.90;;;;;;5033913;28;20811;-67
2020/12/09 06:12:55;;;;;;;54.47;37.80;;;3.10;99.90;;;;;;5034098;28;20839;-67
2020/12/09 06:15:23;;;;;;;50.70;37.60;;;3.10;99.90;;;;;;5033999;28;20441;-67
2020/12/09 06:18:05;;;;;;;53.47;37.93;;;3.10;99.90;;;;;;5033885;28;20445;-68
2020/12/09 06:20:33;;;;;;;47.47;37.37;;;3.10;99.90;;;;;;5033602;28;20862;-68
2020/12/09 06:23:00;;;;;;;50.73;40.33;;;3.10;99.90;;;;;;5033722;28;20776;-68
2020/12/09 06:25:27;;;;;;;52.73;41.47;;;3.10;99.90;;;;;;5033723;28;20433;-69
2020/12/09 06:27:55;;;;;;;50.90;35.83;;;3.10;99.90;;;;;;5033791;28;20448;-68
2020/12/09 06:30:29;;;;;;;52.80;38.43;;;3.10;99.90;;;;;;5033287;28;21009;-68
2020/12/09 06:32:55;;;;;;;54.40;38.67;;;3.10;99.90;;;;;;5033654;28;20930;-68
2020/12/09 06:35:22;;;;;;;58.17;41.93;;;3.10;99.90;;;;;;5033653;28;20437;-68
2020/12/09 06:38:13;;;;;;;57.23;38.83;;;3.10;99.90;;;;;;5033757;28;20842;-68
2020/12/09 06:40:40;;;;;;;50.80;35.73;;;3.20;99.90;;;;;;5033266;28;20457;-67
2020/12/09 06:43:08;;;;;;;52.53;36.60;;;3.20;99.90;;;;;;5033651;28;20437;-68
2020/12/09 06:45:44;;;;;;;51.23;38.30;;;3.20;99.90;;;;;;5033447;28;20437;-67
2020/12/09 06:48:10;;;;;;;52.03;36.53;;;3.40;99.90;;;;;;5033020;28;20445;-68
2020/12/09 06:50:37;;;;;;;47.37;35.90;;;3.40;99.90;;;;;;5032837;28;20998;-69
2020/12/09 06:53:12;;;;;;;47.40;37.87;;;3.50;99.90;;;;;;5033268;28;20441;-67
2020/12/09 06:55:38;;;;;;;52.37;37.40;;;3.50;99.90;;;;;;5033178;28;20463;-68
2020/12/09 06:58:23;;;;;;;59.07;39.20;;;3.50;99.90;;;;;;5033201;28;20467;-68
2020/12/09 07:00:59;;;;;;;51.67;37.30;;;3.50;99.90;;;;;;5032762;28;20458;-67
2020/12/09 07:03:26;;;;;;;48.27;37.40;;;3.50;99.90;;;;;;5033036;28;20432;-67
2020/12/09 07:05:53;;;;;;;46.30;34.93;;;3.50;99.90;;;;;;5032968;28;20445;-68
2020/12/09 07:08:19;;;;;;;39.90;33.67;;;3.60;99.90;;;;;;5032710;28;20814;-69
2020/12/09 07:10:45;;;;;;;43.97;34.80;;;3.50;99.90;;;;;;5031897;28;20503;-68
2020/12/09 07:13:13;;;;;;;49.30;37.40;;;3.60;99.90;;;;;;5032935;28;20445;-68
2020/12/09 07:15:43;;;;;;;49.40;34.20;;;3.60;99.90;;;;;;5032851;28;20802;-66
2020/12/09 07:18:09;;;;;;;53.43;36.63;;;3.60;99.90;;;;;;5032912;28;20454;-67
2020/12/09 07:20:36;;;;;;;46.80;34.97;;;3.60;99.90;;;;;;5032521;28;20472;-67
2020/12/09 07:23:04;;;;;;;46.50;36.33;;;3.60;99.90;;;;;;5032691;28;20444;-67
2020/12/09 07:25:32;;;;;;;40.17;33.40;;;3.60;99.90;;;;;;5032667;28;20567;-67
2020/12/09 07:27:58;;;;;;;46.03;35.40;;;3.60;99.90;;;;;;5032763;28;20437;-67
2020/12/09 07:30:25;;;;;;;46.53;35.90;;;3.60;99.90;;;;;;5032315;28;20465;-67
2020/12/09 07:32:54;;;;;;;46.37;36.83;;;3.60;99.90;;;;;;5032625;28;20464;-67
2020/12/09 07:35:20;;;;;;;43.33;34.80;;;3.60;99.90;;;;;;5032617;28;20445;-67
2020/12/09 07:37:49;;;;;;;45.83;38.00;;;3.50;99.90;;;;;;5032416;28;20445;-68
2020/12/09 07:40:20;;;;;;;45.30;36.00;;;3.50;99.90;;;;;;5032261;28;21077;-66
2020/12/09 07:42:57;;;;;;;47.10;35.53;;;3.50;99.90;;;;;;5032497;28;20797;-66
2020/12/09 07:45:23;;;;;;;46.80;36.17;;;3.50;99.90;;;;;;5032365;28;20441;-66
2020/12/09 07:47:49;;;;;;;52.60;39.40;;;3.50;99.90;;;;;;5032470;28;20894;-67
2020/12/09 07:50:17;;;;;;;47.43;37.37;;;3.50;99.90;;;;;;5032067;28;20805;-67
2020/12/09 07:52:43;;;;;;;47.60;35.20;;;3.50;99.90;;;;;;5032024;28;20484;-66
2020/12/09 07:55:13;;;;;;;39.90;32.90;;;3.40;99.90;;;;;;5032193;28;20445;-67
2020/12/09 07:57:41;;;;;;;46.73;36.83;;;3.40;99.90;;;;;;5032225;28;20437;-67
2020/12/09 08:00:09;;;;;;;42.50;33.77;;;3.40;99.90;;;;;;5032265;28;20473;-68
2020/12/09 08:02:40;;;;;;;47.70;36.20;;;3.30;99.90;;;;;;5032041;28;20440;-69
2020/12/09 08:05:14;;;;;;;50.27;36.40;;;3.40;99.90;;;;;;5032198;28;20452;-69
2020/12/09 08:07:55;;;;;;;48.37;36.33;;;3.30;99.90;;;;;;5031835;28;20436;-69
2020/12/09 08:10:26;;;;;;;46.60;36.20;;;3.30;99.90;;;;;;5031662;28;20465;-68
2020/12/09 08:13:08;;;;;;;41.63;36.40;;;3.30;99.90;;;;;;5032024;28;20443;-69
2020/12/09 08:15:36;;;;;;;44.73;35.60;;;3.30;99.90;;;;;;5031847;28;20441;-68
2020/12/09 08:18:03;;;;;;;41.20;32.67;;;3.30;99.90;;;;;;5031757;28;20449;-69
2020/12/09 08:20:30;;;;;;;42.80;36.40;;;3.30;99.90;;;;;;5031379;28;20467;-68
2020/12/09 08:23:02;;;;;;;45.57;34.67;;;3.30;99.90;;;;;;5031584;28;20457;-68
2020/12/09 08:25:30;;;;;;;49.87;37.67;;;3.20;99.90;;;;;;5031612;28;20445;-69
2020/12/09 08:28:03;;;;;;;43.27;35.97;;;3.20;99.90;;;;;;5031575;28;20449;-68
2020/12/09 08:30:30;;;;;;;47.37;35.60;;;3.20;99.90;;;;;;5031342;28;20465;-67
2020/12/09 08:33:15;;;;;;;50.53;38.20;;;3.10;99.90;;;;;;5031578;28;20931;-68
2020/12/09 08:35:44;;;;;;;46.70;36.50;;;3.20;99.90;;;;;;5031393;28;20441;-68
2020/12/09 08:38:20;;;;;;;47.30;36.77;;;3.10;99.90;;;;;;5031551;28;20437;-69
2020/12/09 08:40:48;;;;;;;51.17;36.10;;;3.10;99.90;;;;;;5031329;28;20471;-70
2020/12/09 08:43:15;;;;;;;44.17;37.10;;;3.00;99.90;;;;;;5031403;28;20441;-69
2020/12/09 08:45:44;;;;;;;44.10;35.80;;;3.00;99.90;;;;;;5031557;28;20496;-69
2020/12/09 08:48:10;;;;;;;46.43;35.93;;;3.10;99.90;;;;;;5031442;28;20823;-68
2020/12/09 08:50:36;;;;;;;44.87;36.90;;;3.00;99.90;;;;;;5030939;28;20460;-68
2020/12/09 08:53:02;;;;;;;46.97;37.00;;;3.10;99.90;;;;;;5031274;28;20943;-67
2020/12/09 08:55:29;;;;;;;46.07;37.33;;;3.10;99.90;;;;;;5031317;28;20437;-69
2020/12/09 08:57:56;;;;;;;50.33;36.80;;;3.20;99.90;;;;;;5031417;28;20832;-69
2020/12/09 09:00:22;;;;;;;45.73;38.33;;;3.30;99.90;;;;;;5031086;28;20997;-69
2020/12/09 09:02:48;;;;;;;50.70;38.30;;;3.30;99.90;;;;;;5031247;28;20437;-68
2020/12/09 09:05:14;;;;;;;43.03;34.50;;;3.30;99.90;;;;;;5031269;28;20447;-68
2020/12/09 09:07:41;;;;;;;46.10;37.63;;;3.40;99.90;;;;;;5031125;28;20445;-68
2020/12/09 09:10:07;;;;;;;48.70;38.30;;;3.50;99.90;;;;;;5030910;28;20465;-68
2020/12/09 09:12:34;;;;;;;41.50;35.53;;;3.50;99.90;;;;;;5031197;28;20483;-69
2020/12/09 09:15:01;;;;;;;42.53;36.03;;;3.60;99.90;;;;;;5031092;28;20795;-68
2020/12/09 09:17:27;;;;;;;46.20;36.67;;;3.60;99.90;;;;;;5031144;28;20448;-68
2020/12/09 09:19:53;;;;;;;47.30;38.80;;;3.60;99.90;;;;;;5030844;28;20461;-69
2020/12/09 09:22:19;;;;;;;41.77;35.17;;;3.60;99.90;;;;;;5030904;28;20443;-69
2020/12/09 09:24:46;;;;;;;41.27;34.20;;;3.60;99.90;;;;;;5031126;28;20444;-68
2020/12/09 09:27:12;;;;;;;43.83;36.97;;;3.70;99.90;;;;;;5030889;28;20456;-69
2020/12/09 09:29:39;;;;;;;41.90;34.90;;;3.70;99.90;;;;;;5030794;28;20471;-69
2020/12/09 09:32:06;;;;;;;44.30;33.87;;;3.80;99.90;;;;;;5031133;28;20842;-69
2020/12/09 09:34:32;;;;;;;39.97;35.57;;;3.80;99.90;;;;;;5034688;28;20433;-69
2020/12/09 09:36:59;;;;;;;42.10;35.37;;;3.80;99.90;;;;;;5034749;28;20437;-69
2020/12/09 09:39:25;;;;;;;44.57;34.20;;;3.90;99.90;;;;;;5034774;28;20452;-67
2020/12/09 09:41:55;;;;;;;45.40;34.50;;;3.90;99.90;;;;;;5034418;28;20447;-68
2020/12/09 09:44:22;;;;;;;41.63;32.97;;;4.00;99.90;;;;;;5034728;28;20506;-68
2020/12/09 09:46:49;;;;;;;40.77;34.57;;;4.10;99.90;;;;;;5034514;28;20949;-68
2020/12/09 09:49:15;;;;;;;37.17;32.57;;;4.20;99.90;;;;;;5034366;28;20456;-69
2020/12/09 09:51:42;;;;;;;41.50;32.97;;;4.30;99.90;;;;;;5034238;28;20473;-68
2020/12/09 09:54:08;;;;;;;38.83;34.73;;;4.30;99.90;;;;;;5034665;28;20441;-68
2020/12/09 09:56:34;;;;;;;40.60;34.73;;;4.30;99.90;;;;;;5034387;28;20452;-68
2020/12/09 09:59:00;;;;;;;42.20;32.63;;;4.40;99.90;;;;;;5034101;28;20456;-69
2020/12/09 10:01:27;;;;;;;38.73;33.50;;;4.50;99.90;;;;;;5034098;28;20453;-68
2020/12/09 10:03:54;;;;;;;37.57;30.97;;;4.60;99.90;;;;;;5034260;28;20437;-68
2020/12/09 10:06:20;;;;;;;37.10;32.67;;;4.60;99.90;;;;;;5034182;28;20444;-68
2020/12/09 10:08:46;;;;;;;44.93;33.50;;;4.80;99.90;;;;;;5034154;28;20443;-67
2020/12/09 10:11:12;;;;;;;41.53;32.70;;;4.90;99.90;;;;;;5033813;28;20488;-67
2020/12/09 10:13:39;;;;;;;36.97;32.93;;;5.00;99.90;;;;;;5034025;28;20811;-67
2020/12/09 10:16:05;;;;;;;34.13;30.47;;;5.00;99.90;;;;;;5034034;28;20456;-67
2020/12/09 10:18:31;;;;;;;35.57;31.93;;;5.00;99.90;;;;;;5034053;28;20935;-66
2020/12/09 10:20:58;;;;;;;39.37;32.93;;;5.10;99.90;;;;;;5033733;28;20505;-67
2020/12/09 10:23:24;;;;;;;42.50;35.70;;;5.40;99.90;;;;;;5033979;28;20442;-67
2020/12/09 10:25:51;;;;;;;36.50;32.80;;;5.50;99.90;;;;;;5034790;28;20440;-67
2020/12/09 10:28:17;;;;;;;37.20;33.40;;;5.50;99.90;;;;;;5034202;28;20453;-68
2020/12/09 10:30:46;;;;;;;35.67;32.17;;;5.70;99.90;;;;;;5033327;28;21005;-67
2020/12/09 10:33:13;;;;;;;40.57;34.80;;;5.90;99.90;;;;;;5033692;28;20484;-67
2020/12/09 10:35:42;;;;;;;38.03;34.13;;;6.20;99.90;;;;;;5033551;28;21002;-68
2020/12/09 10:38:10;;;;;;;36.60;32.70;;;6.30;99.90;;;;;;5033846;28;20441;-67
2020/12/09 10:40:36;;;;;;;38.60;34.63;;;6.50;99.90;;;;;;5033383;28;20465;-67
2020/12/09 10:43:02;;;;;;;40.57;36.33;;;6.50;99.90;;;;;;5033766;28;20437;-67
2020/12/09 10:45:29;;;;;;;40.53;36.40;;;6.70;99.90;;;;;;5032923;28;20437;-67
2020/12/09 10:47:55;;;;;;;41.73;37.50;;;6.70;99.90;;;;;;5034184;28;20445;-68
2020/12/09 10:50:21;;;;;;;40.77;36.67;;;6.70;99.90;;;;;;5033576;28;20458;-68
2020/12/09 10:52:47;;;;;;;39.40;35.50;;;6.60;99.90;;;;;;5033413;28;20862;-68
2020/12/09 10:55:14;;;;;;;39.23;35.60;;;6.80;99.90;;;;;;5033387;28;20808;-67
2020/12/09 10:57:41;;;;;;;41.07;36.97;;;7.00;99.90;;;;;;5033354;28;20437;-68
2020/12/09 11:00:07;;;;;;;41.00;37.13;;;7.30;99.90;;;;;;5032837;28;20477;-68
2020/12/09 11:02:33;;;;;;;38.57;35.00;;;7.50;99.90;;;;;;5033244;28;20939;-67
2020/12/09 11:04:59;;;;;;;39.23;35.30;;;7.90;99.90;;;;;;5033186;28;20455;-68
2020/12/09 11:07:26;;;;;;;38.17;34.37;;;8.20;99.90;;;;;;5033782;28;20441;-68
2020/12/09 11:09:52;;;;;;;41.27;37.30;;;8.50;99.90;;;;;;5033249;28;20476;-68
2020/12/09 11:12:20;;;;;;;39.23;35.50;;;8.60;99.00;;;;;;5032834;28;20485;-67
2020/12/09 11:14:46;;;;;;;38.83;35.37;;;8.70;98.40;;;;;;5033089;28;20441;-67
2020/12/09 11:17:12;;;;;;;39.37;36.00;;;9.00;96.10;;;;;;5032879;28;20441;-68
2020/12/09 11:19:38;;;;;;;39.93;36.53;;;8.60;94.50;;;;;;5032793;28;20467;-67
2020/12/09 11:22:05;;;;;;;41.23;37.43;;;8.80;94.90;;;;;;5032810;28;20433;-68
2020/12/09 11:24:31;;;;;;;39.77;35.80;;;9.40;94.20;;;;;;5032989;28;20437;-67
2020/12/09 11:26:57;;;;;;;40.27;36.77;;;9.70;92.70;;;;;;5032936;28;20520;-67
2020/12/09 11:29:24;;;;;;;44.33;40.40;;;10.00;90.50;;;;;;5032586;28;20437;-67
2020/12/09 11:31:53;;;;;;;44.97;40.90;;;10.20;88.80;;;;;;5032377;28;20483;-67
2020/12/09 11:34:21;;;;;;;39.93;36.10;;;10.40;87.80;;;;;;5032572;28;20437;-67
2020/12/09 11:36:47;;;;;;;42.53;38.83;;;10.80;84.10;;;;;;5032630;28;20456;-67
2020/12/09 11:39:13;;;;;;;42.37;38.67;;;11.30;80.70;;;;;;5033178;28;20535;-69
2020/12/09 11:41:39;;;;;;;43.20;39.53;;;11.50;76.90;;;;;;5032312;28;20437;-68
2020/12/09 11:44:06;;;;;;;42.60;38.80;;;11.30;75.80;;;;;;5032403;28;20468;-70
2020/12/09 11:46:33;;;;;;;45.70;41.50;;;10.90;74.70;;;;;;5032454;28;20445;-70
2020/12/09 11:48:59;;;;;;;44.50;40.47;;;10.70;76.40;;;;;;5032413;28;20460;-69
2020/12/09 11:51:25;;;;;;;41.60;37.90;;;10.50;76.60;;;;;;5032138;28;20484;-70
2020/12/09 11:53:52;;;;;;;43.47;39.53;;;10.80;77.30;;;;;;5032457;28;20452;-71
2020/12/09 11:56:23;;;;;;;44.93;40.90;;;10.60;76.80;;;;;;5031938;28;20441;-70
2020/12/09 11:58:49;;;;;;;44.43;40.63;;;10.90;75.70;;;;;;5032426;28;20442;-70
2020/12/09 12:01:16;;;;;;;43.20;39.30;;;10.80;75.30;;;;;;5032047;28;20506;-71
2020/12/09 12:03:43;;;;;;;47.20;42.60;;;10.70;75.60;;;;;;5032338;28;20468;-71
2020/12/09 12:06:18;;;;;;;42.33;38.53;;;10.80;75.60;;;;;;5032156;28;20496;-70
2020/12/09 12:08:44;;;;;;;42.03;38.50;;;10.90;73.80;;;;;;5032129;28;20946;-70
2020/12/09 12:11:14;;;;;;;42.30;38.60;;;10.50;73.00;;;;;;5031504;28;20464;-70
2020/12/09 12:13:41;;;;;;;41.13;37.60;;;11.10;73.70;;;;;;5032198;28;20428;-70
2020/12/09 12:16:12;;;;;;;43.03;39.37;;;11.80;73.10;;;;;;5031822;28;20449;-70
2020/12/09 12:18:38;;;;;;;45.37;41.53;;;12.70;69.80;;;;;;5031793;28;20445;-71
2020/12/09 12:21:05;;;;;;;44.80;41.03;;;12.90;65.80;;;;;;5031549;28;20547;-70
2020/12/09 12:23:31;;;;;;;45.37;41.27;;;12.80;64.70;;;;;;5031954;28;20438;-71
2020/12/09 12:25:58;;;;;;;44.10;40.40;;;13.00;63.00;;;;;;5031723;28;20445;-69
2020/12/09 12:28:24;;;;;;;42.50;39.00;;;13.00;62.80;;;;;;5031608;28;20540;-69
2020/12/09 12:30:50;;;;;;;44.10;40.60;;;13.10;61.80;;;;;;5031483;28;21001;-70
2020/12/09 12:33:16;;;;;;;44.47;40.67;;;12.90;60.60;;;;;;5031693;28;20853;-70
2020/12/09 12:35:43;;;;;;;45.27;41.37;;;13.80;60.70;;;;;;5031733;28;20441;-71
2020/12/09 12:38:10;;;;;;;43.87;40.20;;;14.00;58.30;;;;;;5031697;28;20452;-70